sensor_id;sensor_type;location;lat;lon;timestamp;pressure;altitude;pressure_sealevel;temperature;humidity
2000;BME280;1001;48.87406500;9.59633600;2023-04-12T00:01:48;94565.22;;;8.41;67.86
2000;BME280;1001;48.87406500;9.59633600;2023-04-12T00:04:16;94568.88;;;8.40;67.44
2000;BME280;1001;48.87406500;9.59633600;2023-04-12T00:06:42;94566.25;;;8.40;68.88
2000;BME280;1001;48.87406500;9.59633600;2023-04-12T00:09:13;94566.84;;;8.30;68.89
2000;BME280;1001;48.87406500;9.59633600;2023-04-12T00:11:40;94559.13;;;8.35;68.79
2000;BME280;1001;48.87406500;9.59633600;2023-04-12T00:14:07;94555.13;;;8.21;69.16
2000;BME280;1001;48.87406500;9.59633600;2023-04-12T00:16:33;94554.13;;;8.22;68.96
2000;BME280;1001;48.87406500;9.59633600;2023-04-12T00:19:01;94560.13;;;8.22;69.89
2000;BME280;1001;48.87406500;9.59633600;2023-04-12T00:21:29;94548.66;;;8.23;68.80
2000;BME280;1001;48.87406500;9.59633600;2023-04-12T00:23:56;94552.44;;;8.28;67.62
2000;BME280;1001;48.87406500;9.59633600;2023-04-12T00:26:23;94539.88;;;8.36;66.24
2000;BME280;1001;48.87406500;9.59633600;2023-04-12T00:28:50;94548.47;;;8.37;67.29
2000;BME280;1001;48.87406500;9.59633600;2023-04-12T00:31:17;94541.56;;;8.31;69.44
2000;BME280;1001;48.87406500;9.59633600;2023-04-12T00:33:43;94531.63;;;8.28;67.89
2000;BME280;1001;48.87406500;9.59633600;2023-04-12T00:36:10;94531.59;;;8.16;69.12
2000;BME280;1001;48.87406500;9.59633600;2023-04-12T00:38:38;94536.22;;;8.14;69.94
2000;BME280;1001;48.87406500;9.59633600;2023-04-12T00:41:06;94534.53;;;8.19;69.71
2000;BME280;1001;48.87406500;9.59633600;2023-04-12T00:43:33;94532.59;;;8.15;70.87
2000;BME280;1001;48.87406500;9.59633600;2023-04-12T00:46:00;94527.41;;;8.03;71.73
2000;BME280;1001;48.87406500;9.59633600;2023-04-12T00:48:29;94530.91;;;7.97;72.91
2000;BME280;1001;48.87406500;9.59633600;2023-04-12T00:50:57;94524.69;;;7.98;72.41
2000;BME280;1001;48.87406500;9.59633600;2023-04-12T00:53:23;94523.44;;;7.89;73.82
2000;BME280;1001;48.87406500;9.59633600;2023-04-12T00:55:52;94524.69;;;7.87;75.33
2000;BME280;1001;48.87406500;9.59633600;2023-04-12T00:58:22;94526.16;;;7.83;75.59
2000;BME280;1001;48.87406500;9.59633600;2023-04-12T01:00:49;94520.38;;;7.81;75.67
2000;BME280;1001;48.87406500;9.59633600;2023-04-12T01:03:17;94518.56;;;7.70;77.74
2000;BME280;1001;48.87406500;9.59633600;2023-04-12T01:06:03;94522.50;;;7.61;79.40
2000;BME280;1001;48.87406500;9.59633600;2023-04-12T01:08:40;94519.09;;;7.48;80.48
2000;BME280;1001;48.87406500;9.59633600;2023-04-12T01:11:16;94507.56;;;7.44;81.73
2000;BME280;1001;48.87406500;9.59633600;2023-04-12T01:13:47;94509.56;;;7.31;83.31
2000;BME280;1001;48.87406500;9.59633600;2023-04-12T01:16:24;94510.94;;;7.33;84.69
2000;BME280;1001;48.87406500;9.59633600;2023-04-12T01:18:56;94503.63;;;7.12;86.09
2000;BME280;1001;48.87406500;9.59633600;2023-04-12T01:21:30;94499.31;;;7.06;87.98
2000;BME280;1001;48.87406500;9.59633600;2023-04-12T01:24:08;94498.31;;;7.07;88.75
2000;BME280;1001;48.87406500;9.59633600;2023-04-12T01:26:43;94498.63;;;6.99;90.47
2000;BME280;1001;48.87406500;9.59633600;2023-04-12T01:29:13;94488.66;;;6.96;91.72
2000;BME280;1001;48.87406500;9.59633600;2023-04-12T01:31:49;94486.72;;;6.92;93.20
2000;BME280;1001;48.87406500;9.59633600;2023-04-12T01:34:17;94482.09;;;6.94;93.19
2000;BME280;1001;48.87406500;9.59633600;2023-04-12T01:36:46;94478.78;;;6.86;94.44
2000;BME280;1001;48.87406500;9.59633600;2023-04-12T01:39:13;94480.34;;;6.76;95.99
2000;BME280;1001;48.87406500;9.59633600;2023-04-12T01:41:40;94477.03;;;6.69;96.28
2000;BME280;1001;48.87406500;9.59633600;2023-04-12T01:44:13;94471.47;;;6.65;97.97
2000;BME280;1001;48.87406500;9.59633600;2023-04-12T01:46:41;94471.41;;;6.72;98.77
2000;BME280;1001;48.87406500;9.59633600;2023-04-12T01:49:09;94469.03;;;6.70;99.33
2000;BME280;1001;48.87406500;9.59633600;2023-04-12T01:51:44;94456.97;;;6.58;100.00
2000;BME280;1001;48.87406500;9.59633600;2023-04-12T01:54:20;94459.47;;;6.53;100.00
2000;BME280;1001;48.87406500;9.59633600;2023-04-12T01:56:51;94456.28;;;6.51;100.00
2000;BME280;1001;48.87406500;9.59633600;2023-04-12T01:59:20;94455.03;;;6.53;100.00
2000;BME280;1001;48.87406500;9.59633600;2023-04-12T02:01:50;94449.84;;;6.53;100.00
2000;BME280;1001;48.87406500;9.59633600;2023-04-12T02:04:18;94450.88;;;6.52;100.00
2000;BME280;1001;48.87406500;9.59633600;2023-04-12T02:06:47;94453.69;;;6.51;100.00
2000;BME280;1001;48.87406500;9.59633600;2023-04-12T02:09:13;94451.75;;;6.46;100.00
2000;BME280;1001;48.87406500;9.59633600;2023-04-12T02:11:45;94445.25;;;6.55;100.00
2000;BME280;1001;48.87406500;9.59633600;2023-04-12T02:14:12;94441.94;;;6.48;100.00
2000;BME280;1001;48.87406500;9.59633600;2023-04-12T02:16:40;94438.00;;;6.46;100.00
2000;BME280;1001;48.87406500;9.59633600;2023-04-12T02:19:08;94432.09;;;6.39;100.00
2000;BME280;1001;48.87406500;9.59633600;2023-04-12T02:21:38;94426.81;;;6.45;100.00
2000;BME280;1001;48.87406500;9.59633600;2023-04-12T02:24:06;94418.50;;;6.37;100.00
2000;BME280;1001;48.87406500;9.59633600;2023-04-12T02:26:33;94415.13;;;6.36;100.00
2000;BME280;1001;48.87406500;9.59633600;2023-04-12T02:29:00;94408.34;;;6.35;100.00
2000;BME280;1001;48.87406500;9.59633600;2023-04-12T02:31:27;94409.34;;;6.34;100.00
2000;BME280;1001;48.87406500;9.59633600;2023-04-12T02:33:56;94395.88;;;6.26;100.00
2000;BME280;1001;48.87406500;9.59633600;2023-04-12T02:36:23;94394.88;;;6.27;100.00
2000;BME280;1001;48.87406500;9.59633600;2023-04-12T02:38:49;94391.63;;;6.31;100.00
2000;BME280;1001;48.87406500;9.59633600;2023-04-12T02:41:16;94392.88;;;6.29;100.00
2000;BME280;1001;48.87406500;9.59633600;2023-04-12T02:43:43;94373.78;;;6.35;100.00
2000;BME280;1001;48.87406500;9.59633600;2023-04-12T02:46:10;94372.19;;;6.22;100.00
2000;BME280;1001;48.87406500;9.59633600;2023-04-12T02:48:38;94365.53;;;6.26;100.00
2000;BME280;1001;48.87406500;9.59633600;2023-04-12T02:51:06;94366.00;;;6.35;100.00
2000;BME280;1001;48.87406500;9.59633600;2023-04-12T02:53:33;94347.41;;;6.38;100.00
2000;BME280;1001;48.87406500;9.59633600;2023-04-12T02:56:02;94358.13;;;6.41;100.00
2000;BME280;1001;48.87406500;9.59633600;2023-04-12T02:58:29;94355.44;;;6.36;100.00
2000;BME280;1001;48.87406500;9.59633600;2023-04-12T03:00:58;94351.66;;;6.32;100.00
2000;BME280;1001;48.87406500;9.59633600;2023-04-12T03:03:25;94344.38;;;6.41;100.00
2000;BME280;1001;48.87406500;9.59633600;2023-04-12T03:05:52;94345.38;;;6.40;100.00
2000;BME280;1001;48.87406500;9.59633600;2023-04-12T03:08:20;94342.66;;;6.35;100.00
2000;BME280;1001;48.87406500;9.59633600;2023-04-12T03:10:47;94340.56;;;6.25;100.00
2000;BME280;1001;48.87406500;9.59633600;2023-04-12T03:13:14;94333.41;;;6.39;100.00
2000;BME280;1001;48.87406500;9.59633600;2023-04-12T03:15:40;94332.06;;;6.36;100.00
2000;BME280;1001;48.87406500;9.59633600;2023-04-12T03:18:08;94328.44;;;6.37;100.00
2000;BME280;1001;48.87406500;9.59633600;2023-04-12T03:20:36;94327.19;;;6.40;100.00
2000;BME280;1001;48.87406500;9.59633600;2023-04-12T03:23:05;94331.47;;;6.34;100.00
2000;BME280;1001;48.87406500;9.59633600;2023-04-12T03:25:34;94318.16;;;6.31;100.00
2000;BME280;1001;48.87406500;9.59633600;2023-04-12T03:28:01;94313.94;;;6.30;100.00
2000;BME280;1001;48.87406500;9.59633600;2023-04-12T03:30:28;94300.06;;;6.24;100.00
2000;BME280;1001;48.87406500;9.59633600;2023-04-12T03:32:55;94299.84;;;6.26;100.00
2000;BME280;1001;48.87406500;9.59633600;2023-04-12T03:35:22;94293.41;;;6.28;100.00
2000;BME280;1001;48.87406500;9.59633600;2023-04-12T03:37:48;94286.44;;;6.29;100.00
2000;BME280;1001;48.87406500;9.59633600;2023-04-12T03:40:15;94280.19;;;6.30;100.00
2000;BME280;1001;48.87406500;9.59633600;2023-04-12T03:42:44;94283.97;;;6.34;100.00
2000;BME280;1001;48.87406500;9.59633600;2023-04-12T03:45:10;94261.00;;;6.19;100.00
2000;BME280;1001;48.87406500;9.59633600;2023-04-12T03:47:37;94265.66;;;6.29;100.00
2000;BME280;1001;48.87406500;9.59633600;2023-04-12T03:50:05;94260.47;;;6.29;100.00
2000;BME280;1001;48.87406500;9.59633600;2023-04-12T03:52:32;94253.91;;;6.26;100.00
2000;BME280;1001;48.87406500;9.59633600;2023-04-12T03:54:59;94252.13;;;6.27;100.00
2000;BME280;1001;48.87406500;9.59633600;2023-04-12T03:57:26;94248.94;;;6.25;100.00
2000;BME280;1001;48.87406500;9.59633600;2023-04-12T03:59:54;94240.25;;;6.19;100.00
2000;BME280;1001;48.87406500;9.59633600;2023-04-12T04:02:21;94241.84;;;6.32;100.00
2000;BME280;1001;48.87406500;9.59633600;2023-04-12T04:04:48;94245.72;;;6.41;100.00
2000;BME280;1001;48.87406500;9.59633600;2023-04-12T04:07:14;94246.47;;;6.41;100.00
2000;BME280;1001;48.87406500;9.59633600;2023-04-12T04:09:41;94243.53;;;6.38;100.00
2000;BME280;1001;48.87406500;9.59633600;2023-04-12T04:12:08;94231.56;;;6.37;100.00
2000;BME280;1001;48.87406500;9.59633600;2023-04-12T04:14:34;94222.34;;;6.41;100.00
2000;BME280;1001;48.87406500;9.59633600;2023-04-12T04:17:02;94239.28;;;6.55;100.00
2000;BME280;1001;48.87406500;9.59633600;2023-04-12T04:19:30;94234.41;;;6.47;100.00
2000;BME280;1001;48.87406500;9.59633600;2023-04-12T04:21:56;94237.13;;;6.52;100.00
2000;BME280;1001;48.87406500;9.59633600;2023-04-12T04:24:23;94230.00;;;6.47;100.00
2000;BME280;1001;48.87406500;9.59633600;2023-04-12T04:26:50;94216.13;;;6.53;100.00
2000;BME280;1001;48.87406500;9.59633600;2023-04-12T04:29:18;94219.88;;;6.46;100.00
2000;BME280;1001;48.87406500;9.59633600;2023-04-12T04:31:45;94218.50;;;6.43;100.00
2000;BME280;1001;48.87406500;9.59633600;2023-04-12T04:34:14;94211.16;;;6.52;100.00
2000;BME280;1001;48.87406500;9.59633600;2023-04-12T04:36:42;94216.66;;;6.44;100.00
2000;BME280;1001;48.87406500;9.59633600;2023-04-12T04:39:09;94202.94;;;6.43;100.00
2000;BME280;1001;48.87406500;9.59633600;2023-04-12T04:41:35;94201.44;;;6.36;100.00
2000;BME280;1001;48.87406500;9.59633600;2023-04-12T04:44:04;94199.72;;;6.30;100.00
2000;BME280;1001;48.87406500;9.59633600;2023-04-12T04:46:34;94206.53;;;6.42;100.00
2000;BME280;1001;48.87406500;9.59633600;2023-04-12T04:49:02;94194.09;;;6.44;100.00
2000;BME280;1001;48.87406500;9.59633600;2023-04-12T04:51:31;94197.25;;;6.35;100.00
2000;BME280;1001;48.87406500;9.59633600;2023-04-12T04:53:57;94192.63;;;6.37;100.00
2000;BME280;1001;48.87406500;9.59633600;2023-04-12T04:56:24;94193.22;;;6.39;100.00
2000;BME280;1001;48.87406500;9.59633600;2023-04-12T04:58:51;94192.75;;;6.42;100.00
2000;BME280;1001;48.87406500;9.59633600;2023-04-12T05:01:17;94188.13;;;6.44;100.00
2000;BME280;1001;48.87406500;9.59633600;2023-04-12T05:03:44;94183.16;;;6.42;100.00
2000;BME280;1001;48.87406500;9.59633600;2023-04-12T05:06:11;94181.91;;;6.33;100.00
2000;BME280;1001;48.87406500;9.59633600;2023-04-12T05:08:39;94181.47;;;6.36;100.00
2000;BME280;1001;48.87406500;9.59633600;2023-04-12T05:11:05;94186.75;;;6.41;100.00
2000;BME280;1001;48.87406500;9.59633600;2023-04-12T05:13:32;94191.06;;;6.47;100.00
2000;BME280;1001;48.87406500;9.59633600;2023-04-12T05:15:59;94176.47;;;6.35;100.00
2000;BME280;1001;48.87406500;9.59633600;2023-04-12T05:18:25;94176.28;;;6.36;100.00
2000;BME280;1001;48.87406500;9.59633600;2023-04-12T05:20:52;94162.16;;;6.32;100.00
2000;BME280;1001;48.87406500;9.59633600;2023-04-12T05:23:18;94168.03;;;6.39;100.00
2000;BME280;1001;48.87406500;9.59633600;2023-04-12T05:25:47;94178.41;;;6.51;100.00
2000;BME280;1001;48.87406500;9.59633600;2023-04-12T05:28:14;94180.00;;;6.40;100.00
2000;BME280;1001;48.87406500;9.59633600;2023-04-12T05:30:42;94174.13;;;6.45;100.00
2000;BME280;1001;48.87406500;9.59633600;2023-04-12T05:33:08;94159.56;;;6.44;100.00
2000;BME280;1001;48.87406500;9.59633600;2023-04-12T05:35:35;94165.78;;;6.43;100.00
2000;BME280;1001;48.87406500;9.59633600;2023-04-12T05:38:02;94169.38;;;6.30;100.00
2000;BME280;1001;48.87406500;9.59633600;2023-04-12T05:40:28;94161.16;;;6.45;100.00
2000;BME280;1001;48.87406500;9.59633600;2023-04-12T05:42:57;94157.31;;;6.47;100.00
2000;BME280;1001;48.87406500;9.59633600;2023-04-12T05:45:24;94167.00;;;6.52;100.00
2000;BME280;1001;48.87406500;9.59633600;2023-04-12T05:47:51;94149.28;;;6.49;100.00
2000;BME280;1001;48.87406500;9.59633600;2023-04-12T05:50:18;94154.72;;;6.47;100.00
2000;BME280;1001;48.87406500;9.59633600;2023-04-12T05:52:45;94151.31;;;6.58;100.00
2000;BME280;1001;48.87406500;9.59633600;2023-04-12T05:55:12;94157.84;;;6.61;100.00
2000;BME280;1001;48.87406500;9.59633600;2023-04-12T05:57:40;94153.22;;;6.63;100.00
2000;BME280;1001;48.87406500;9.59633600;2023-04-12T06:00:09;94149.84;;;6.62;100.00
2000;BME280;1001;48.87406500;9.59633600;2023-04-12T06:02:40;94147.81;;;6.64;100.00
2000;BME280;1001;48.87406500;9.59633600;2023-04-12T06:05:07;94133.34;;;6.68;100.00
2000;BME280;1001;48.87406500;9.59633600;2023-04-12T06:07:34;94142.28;;;6.61;100.00
2000;BME280;1001;48.87406500;9.59633600;2023-04-12T06:10:01;94139.22;;;6.64;100.00
2000;BME280;1001;48.87406500;9.59633600;2023-04-12T06:12:28;94132.41;;;6.74;100.00
2000;BME280;1001;48.87406500;9.59633600;2023-04-12T06:14:54;94117.31;;;6.71;100.00
2000;BME280;1001;48.87406500;9.59633600;2023-04-12T06:17:22;94119.56;;;6.68;100.00
2000;BME280;1001;48.87406500;9.59633600;2023-04-12T06:19:49;94113.13;;;6.70;100.00
2000;BME280;1001;48.87406500;9.59633600;2023-04-12T06:22:16;94113.91;;;6.71;100.00
2000;BME280;1001;48.87406500;9.59633600;2023-04-12T06:24:42;94099.25;;;6.53;100.00
2000;BME280;1001;48.87406500;9.59633600;2023-04-12T06:27:09;94099.81;;;6.67;100.00
2000;BME280;1001;48.87406500;9.59633600;2023-04-12T06:29:35;94100.47;;;6.74;100.00
2000;BME280;1001;48.87406500;9.59633600;2023-04-12T06:32:02;94106.56;;;6.79;100.00
2000;BME280;1001;48.87406500;9.59633600;2023-04-12T06:34:31;94093.00;;;6.77;100.00
2000;BME280;1001;48.87406500;9.59633600;2023-04-12T06:36:57;94082.84;;;6.76;100.00
2000;BME280;1001;48.87406500;9.59633600;2023-04-12T06:39:24;94077.97;;;6.79;100.00
2000;BME280;1001;48.87406500;9.59633600;2023-04-12T06:41:51;94076.88;;;6.75;100.00
2000;BME280;1001;48.87406500;9.59633600;2023-04-12T06:44:18;94067.13;;;6.82;100.00
2000;BME280;1001;48.87406500;9.59633600;2023-04-12T06:46:44;94059.19;;;6.89;100.00
2000;BME280;1001;48.87406500;9.59633600;2023-04-12T06:49:11;94042.16;;;6.81;100.00
2000;BME280;1001;48.87406500;9.59633600;2023-04-12T06:51:39;94048.34;;;6.92;100.00
2000;BME280;1001;48.87406500;9.59633600;2023-04-12T06:54:06;94053.28;;;6.94;100.00
2000;BME280;1001;48.87406500;9.59633600;2023-04-12T06:56:35;94042.75;;;6.83;100.00
2000;BME280;1001;48.87406500;9.59633600;2023-04-12T06:59:02;94020.78;;;6.91;100.00
2000;BME280;1001;48.87406500;9.59633600;2023-04-12T07:01:29;94018.97;;;6.92;100.00
2000;BME280;1001;48.87406500;9.59633600;2023-04-12T07:03:55;94021.34;;;6.93;100.00
2000;BME280;1001;48.87406500;9.59633600;2023-04-12T07:06:22;94022.66;;;7.07;100.00
2000;BME280;1001;48.87406500;9.59633600;2023-04-12T07:08:50;94012.00;;;7.09;100.00
2000;BME280;1001;48.87406500;9.59633600;2023-04-12T07:11:17;94005.78;;;7.10;100.00
2000;BME280;1001;48.87406500;9.59633600;2023-04-12T07:13:43;94005.09;;;7.14;100.00
2000;BME280;1001;48.87406500;9.59633600;2023-04-12T07:16:10;93999.66;;;7.16;100.00
2000;BME280;1001;48.87406500;9.59633600;2023-04-12T07:18:36;94001.28;;;7.22;100.00
2000;BME280;1001;48.87406500;9.59633600;2023-04-12T07:21:04;93996.44;;;7.25;100.00
2000;BME280;1001;48.87406500;9.59633600;2023-04-12T07:23:31;93993.03;;;7.25;100.00
2000;BME280;1001;48.87406500;9.59633600;2023-04-12T07:26:00;93982.72;;;7.30;100.00
2000;BME280;1001;48.87406500;9.59633600;2023-04-12T07:28:27;93977.38;;;7.36;100.00
2000;BME280;1001;48.87406500;9.59633600;2023-04-12T07:30:55;93973.13;;;7.47;100.00
2000;BME280;1001;48.87406500;9.59633600;2023-04-12T07:33:23;93990.38;;;7.53;100.00
2000;BME280;1001;48.87406500;9.59633600;2023-04-12T07:35:50;93977.78;;;7.45;100.00
2000;BME280;1001;48.87406500;9.59633600;2023-04-12T07:38:16;93975.41;;;7.43;100.00
2000;BME280;1001;48.87406500;9.59633600;2023-04-12T07:40:43;93964.69;;;7.57;100.00
2000;BME280;1001;48.87406500;9.59633600;2023-04-12T07:43:11;93958.91;;;7.71;100.00
2000;BME280;1001;48.87406500;9.59633600;2023-04-12T07:45:38;93957.88;;;7.72;100.00
2000;BME280;1001;48.87406500;9.59633600;2023-04-12T07:48:05;93941.56;;;7.77;100.00
2000;BME280;1001;48.87406500;9.59633600;2023-04-12T07:50:32;93944.94;;;7.77;100.00
2000;BME280;1001;48.87406500;9.59633600;2023-04-12T07:53:17;93938.56;;;7.68;100.00
2000;BME280;1001;48.87406500;9.59633600;2023-04-12T07:55:44;93930.31;;;7.54;100.00
2000;BME280;1001;48.87406500;9.59633600;2023-04-12T07:58:12;93938.56;;;7.68;100.00
2000;BME280;1001;48.87406500;9.59633600;2023-04-12T08:00:38;93927.75;;;7.76;100.00
2000;BME280;1001;48.87406500;9.59633600;2023-04-12T08:03:05;93921.66;;;7.87;100.00
2000;BME280;1001;48.87406500;9.59633600;2023-04-12T08:05:33;93922.88;;;8.01;100.00
2000;BME280;1001;48.87406500;9.59633600;2023-04-12T08:07:59;93912.34;;;7.91;100.00
2000;BME280;1001;48.87406500;9.59633600;2023-04-12T08:10:26;93903.44;;;7.87;100.00
2000;BME280;1001;48.87406500;9.59633600;2023-04-12T08:12:52;93900.00;;;7.82;100.00
2000;BME280;1001;48.87406500;9.59633600;2023-04-12T08:15:21;93897.03;;;7.95;100.00
2000;BME280;1001;48.87406500;9.59633600;2023-04-12T08:17:47;93889.66;;;8.08;100.00
2000;BME280;1001;48.87406500;9.59633600;2023-04-12T08:20:14;93893.72;;;7.99;100.00
2000;BME280;1001;48.87406500;9.59633600;2023-04-12T08:22:41;93890.69;;;8.07;100.00
2000;BME280;1001;48.87406500;9.59633600;2023-04-12T08:25:08;93894.19;;;8.18;100.00
2000;BME280;1001;48.87406500;9.59633600;2023-04-12T08:27:35;93889.00;;;8.18;100.00
2000;BME280;1001;48.87406500;9.59633600;2023-04-12T08:30:02;93879.75;;;8.27;100.00
2000;BME280;1001;48.87406500;9.59633600;2023-04-12T08:32:30;93886.53;;;8.28;100.00
2000;BME280;1001;48.87406500;9.59633600;2023-04-12T08:34:57;93890.25;;;8.15;100.00
2000;BME280;1001;48.87406500;9.59633600;2023-04-12T08:37:24;93878.72;;;8.28;100.00
2000;BME280;1001;48.87406500;9.59633600;2023-04-12T08:39:51;93875.38;;;8.33;100.00
2000;BME280;1001;48.87406500;9.59633600;2023-04-12T08:42:18;93878.91;;;8.48;100.00
2000;BME280;1001;48.87406500;9.59633600;2023-04-12T08:44:45;93871.78;;;8.39;100.00
2000;BME280;1001;48.87406500;9.59633600;2023-04-12T08:47:14;93878.59;;;8.40;100.00
2000;BME280;1001;48.87406500;9.59633600;2023-04-12T08:49:43;93872.53;;;8.34;100.00
2000;BME280;1001;48.87406500;9.59633600;2023-04-12T08:52:10;93873.66;;;8.43;100.00
2000;BME280;1001;48.87406500;9.59633600;2023-04-12T08:54:37;93865.84;;;8.43;100.00
2000;BME280;1001;48.87406500;9.59633600;2023-04-12T08:57:07;93858.13;;;8.27;100.00
2000;BME280;1001;48.87406500;9.59633600;2023-04-12T08:59:37;93866.00;;;8.32;100.00
2000;BME280;1001;48.87406500;9.59633600;2023-04-12T09:02:04;93859.34;;;8.24;100.00
2000;BME280;1001;48.87406500;9.59633600;2023-04-12T09:04:30;93864.50;;;8.41;100.00
2000;BME280;1001;48.87406500;9.59633600;2023-04-12T09:06:58;93880.09;;;8.36;100.00
2000;BME280;1001;48.87406500;9.59633600;2023-04-12T09:09:40;93863.53;;;8.47;100.00
2000;BME280;1001;48.87406500;9.59633600;2023-04-12T09:12:07;93862.00;;;8.51;100.00
2000;BME280;1001;48.87406500;9.59633600;2023-04-12T09:14:34;93851.28;;;8.47;100.00
2000;BME280;1001;48.87406500;9.59633600;2023-04-12T09:17:01;93852.72;;;8.60;100.00
2000;BME280;1001;48.87406500;9.59633600;2023-04-12T09:19:32;93847.19;;;8.51;100.00
2000;BME280;1001;48.87406500;9.59633600;2023-04-12T09:22:01;93856.41;;;8.64;100.00
2000;BME280;1001;48.87406500;9.59633600;2023-04-12T09:24:28;93842.72;;;8.78;100.00
2000;BME280;1001;48.87406500;9.59633600;2023-04-12T09:27:02;93839.38;;;8.51;100.00
2000;BME280;1001;48.87406500;9.59633600;2023-04-12T09:29:29;93841.91;;;8.73;100.00
2000;BME280;1001;48.87406500;9.59633600;2023-04-12T09:32:00;93835.72;;;8.52;100.00
2000;BME280;1001;48.87406500;9.59633600;2023-04-12T09:34:27;93838.84;;;8.54;100.00
2000;BME280;1001;48.87406500;9.59633600;2023-04-12T09:36:53;93841.13;;;8.72;100.00
2000;BME280;1001;48.87406500;9.59633600;2023-04-12T09:39:29;93832.03;;;8.75;100.00
2000;BME280;1001;48.87406500;9.59633600;2023-04-12T09:42:03;93820.50;;;8.71;100.00
2000;BME280;1001;48.87406500;9.59633600;2023-04-12T09:44:30;93821.81;;;8.73;100.00
2000;BME280;1001;48.87406500;9.59633600;2023-04-12T09:46:58;93820.16;;;8.89;100.00
2000;BME280;1001;48.87406500;9.59633600;2023-04-12T09:49:37;93826.69;;;8.92;100.00
2000;BME280;1001;48.87406500;9.59633600;2023-04-12T09:52:05;93823.09;;;9.03;100.00
2000;BME280;1001;48.87406500;9.59633600;2023-04-12T09:54:37;93814.28;;;9.09;100.00
2000;BME280;1001;48.87406500;9.59633600;2023-04-12T09:57:05;93813.25;;;9.10;100.00
2000;BME280;1001;48.87406500;9.59633600;2023-04-12T09:59:35;93815.59;;;9.06;100.00
2000;BME280;1001;48.87406500;9.59633600;2023-04-12T10:02:06;93820.00;;;9.06;100.00
2000;BME280;1001;48.87406500;9.59633600;2023-04-12T10:04:35;93808.78;;;9.05;100.00
2000;BME280;1001;48.87406500;9.59633600;2023-04-12T10:07:03;93810.75;;;8.88;100.00
2000;BME280;1001;48.87406500;9.59633600;2023-04-12T10:09:30;93806.97;;;9.06;100.00
2000;BME280;1001;48.87406500;9.59633600;2023-04-12T10:12:00;93808.88;;;9.15;100.00
2000;BME280;1001;48.87406500;9.59633600;2023-04-12T10:14:28;93799.50;;;9.19;100.00
2000;BME280;1001;48.87406500;9.59633600;2023-04-12T10:16:56;93806.28;;;9.20;100.00
2000;BME280;1001;48.87406500;9.59633600;2023-04-12T10:19:24;93802.41;;;9.28;100.00
2000;BME280;1001;48.87406500;9.59633600;2023-04-12T10:21:51;93803.94;;;9.24;100.00
2000;BME280;1001;48.87406500;9.59633600;2023-04-12T10:24:22;93790.25;;;9.43;100.00
2000;BME280;1001;48.87406500;9.59633600;2023-04-12T10:26:49;93791.53;;;9.41;100.00
2000;BME280;1001;48.87406500;9.59633600;2023-04-12T10:29:24;93799.13;;;9.47;100.00
2000;BME280;1001;48.87406500;9.59633600;2023-04-12T10:31:52;93802.22;;;9.44;100.00
2000;BME280;1001;48.87406500;9.59633600;2023-04-12T10:34:26;93774.41;;;9.60;100.00
2000;BME280;1001;48.87406500;9.59633600;2023-04-12T10:36:54;93784.63;;;9.72;100.00
2000;BME280;1001;48.87406500;9.59633600;2023-04-12T10:39:37;93785.97;;;9.79;100.00
2000;BME280;1001;48.87406500;9.59633600;2023-04-12T10:42:19;93808.69;;;9.84;100.00
2000;BME280;1001;48.87406500;9.59633600;2023-04-12T10:44:49;93788.59;;;9.89;100.00
2000;BME280;1001;48.87406500;9.59633600;2023-04-12T10:50:20;93789.91;;;9.92;100.00
2000;BME280;1001;48.87406500;9.59633600;2023-04-12T10:53:22;93788.38;;;10.01;100.00
2000;BME280;1001;48.87406500;9.59633600;2023-04-12T10:55:51;93783.50;;;10.24;100.00
2000;BME280;1001;48.87406500;9.59633600;2023-04-12T10:58:56;93780.91;;;10.30;100.00
2000;BME280;1001;48.87406500;9.59633600;2023-04-12T11:01:25;93786.16;;;10.40;100.00
2000;BME280;1001;48.87406500;9.59633600;2023-04-12T11:04:09;93780.16;;;10.59;100.00
2000;BME280;1001;48.87406500;9.59633600;2023-04-12T11:06:41;93777.28;;;10.61;100.00
2000;BME280;1001;48.87406500;9.59633600;2023-04-12T11:09:16;93781.47;;;10.57;100.00
2000;BME280;1001;48.87406500;9.59633600;2023-04-12T11:11:43;93783.56;;;10.80;100.00
2000;BME280;1001;48.87406500;9.59633600;2023-04-12T11:14:12;93781.47;;;10.77;100.00
2000;BME280;1001;48.87406500;9.59633600;2023-04-12T11:19:45;93770.72;;;10.99;100.00
2000;BME280;1001;48.87406500;9.59633600;2023-04-12T11:22:14;93761.84;;;11.00;100.00
2000;BME280;1001;48.87406500;9.59633600;2023-04-12T11:24:43;93757.13;;;11.07;100.00
2000;BME280;1001;48.87406500;9.59633600;2023-04-12T11:27:11;93753.69;;;11.26;100.00
2000;BME280;1001;48.87406500;9.59633600;2023-04-12T11:29:38;93740.56;;;11.46;100.00
2000;BME280;1001;48.87406500;9.59633600;2023-04-12T11:32:05;93750.72;;;11.53;100.00
2000;BME280;1001;48.87406500;9.59633600;2023-04-12T11:34:32;93747.56;;;11.71;100.00
2000;BME280;1001;48.87406500;9.59633600;2023-04-12T11:37:01;93738.38;;;11.74;100.00
2000;BME280;1001;48.87406500;9.59633600;2023-04-12T11:39:33;93739.72;;;11.71;100.00
2000;BME280;1001;48.87406500;9.59633600;2023-04-12T11:41:59;93743.91;;;11.57;100.00
2000;BME280;1001;48.87406500;9.59633600;2023-04-12T11:44:28;93751.00;;;11.56;100.00
2000;BME280;1001;48.87406500;9.59633600;2023-04-12T11:46:54;93735.78;;;11.58;100.00
2000;BME280;1001;48.87406500;9.59633600;2023-04-12T11:49:22;93728.97;;;11.62;100.00
2000;BME280;1001;48.87406500;9.59633600;2023-04-12T11:51:49;93730.34;;;11.45;100.00
2000;BME280;1001;48.87406500;9.59633600;2023-04-12T11:54:17;93726.16;;;11.44;100.00
2000;BME280;1001;48.87406500;9.59633600;2023-04-12T11:56:43;93727.44;;;11.56;100.00
2000;BME280;1001;48.87406500;9.59633600;2023-04-12T11:59:10;93722.75;;;11.48;100.00